sensor_id;sensor_type;location;lat;lon;timestamp;pressure;altitude;pressure_sealevel;temperature;humidity
68456;BME280;55437;55.046;38.838;2024-02-23T00:01:32;100484.09;;;-0.43;66.90
68456;BME280;55437;55.046;38.838;2024-02-23T00:03:58;100477.38;;;-0.42;67.03
68456;BME280;55437;55.046;38.838;2024-02-23T00:06:24;100479.09;;;-0.41;66.81
68456;BME280;55437;55.046;38.838;2024-02-23T00:08:56;100483.31;;;-0.40;66.88
68456;BME280;55437;55.046;38.838;2024-02-23T00:11:22;100484.16;;;-0.40;66.90
68456;BME280;55437;55.046;38.838;2024-02-23T00:13:47;100479.03;;;-0.43;66.96
68456;BME280;55437;55.046;38.838;2024-02-23T00:16:14;100479.16;;;-0.38;67.13
68456;BME280;55437;55.046;38.838;2024-02-23T00:18:40;100469.22;;;-0.30;66.81
68456;BME280;55437;55.046;38.838;2024-02-23T00:21:06;100470.09;;;-0.30;66.81
68456;BME280;55437;55.046;38.838;2024-02-23T00:23:31;100471.78;;;-0.29;66.52
68456;BME280;55437;55.046;38.838;2024-02-23T00:25:57;100471.91;;;-0.23;66.75
68456;BME280;55437;55.046;38.838;2024-02-23T00:28:23;100477.66;;;-0.30;66.62
68456;BME280;55437;55.046;38.838;2024-02-23T00:30:49;100469.16;;;-0.33;66.65
68456;BME280;55437;55.046;38.838;2024-02-23T00:33:15;100467.41;;;-0.36;66.61
68456;BME280;55437;55.046;38.838;2024-02-23T00:35:41;100473.22;;;-0.40;66.83
68456;BME280;55437;55.046;38.838;2024-02-23T00:38:07;100470.63;;;-0.43;66.96
68456;BME280;55437;55.046;38.838;2024-02-23T00:40:33;100462.09;;;-0.48;67.15
68456;BME280;55437;55.046;38.838;2024-02-23T00:42:59;100466.28;;;-0.50;67.45
68456;BME280;55437;55.046;38.838;2024-02-23T00:45:26;100472.22;;;-0.47;67.87
68456;BME280;55437;55.046;38.838;2024-02-23T00:47:52;100461.19;;;-0.52;67.40
68456;BME280;55437;55.046;38.838;2024-02-23T00:50:18;100470.75;;;-0.39;67.22
68456;BME280;55437;55.046;38.838;2024-02-23T00:52:45;100476.41;;;-0.49;67.06
68456;BME280;55437;55.046;38.838;2024-02-23T00:55:10;100478.94;;;-0.47;67.26
68456;BME280;55437;55.046;38.838;2024-02-23T00:57:37;100468.84;;;-0.47;67.12
68456;BME280;55437;55.046;38.838;2024-02-23T01:00:22;100473.06;;;-0.46;67.05
68456;BME280;55437;55.046;38.838;2024-02-23T01:02:49;100468.84;;;-0.49;66.60
68456;BME280;55437;55.046;38.838;2024-02-23T01:05:14;100481.41;;;-0.50;67.37
68456;BME280;55437;55.046;38.838;2024-02-23T01:07:40;100479.69;;;-0.51;67.11
68456;BME280;55437;55.046;38.838;2024-02-23T01:10:06;100473.16;;;-0.43;67.14
68456;BME280;55437;55.046;38.838;2024-02-23T01:12:33;100479.75;;;-0.48;67.10
68456;BME280;55437;55.046;38.838;2024-02-23T01:14:59;100479.69;;;-0.51;67.04
68456;BME280;55437;55.046;38.838;2024-02-23T01:17:25;100485.66;;;-0.48;67.07
68456;BME280;55437;55.046;38.838;2024-02-23T01:19:50;100485.66;;;-0.48;66.95
68456;BME280;55437;55.046;38.838;2024-02-23T01:22:17;100484.22;;;-0.38;67.06
68456;BME280;55437;55.046;38.838;2024-02-23T01:24:43;100481.78;;;-0.33;66.98
68456;BME280;55437;55.046;38.838;2024-02-23T01:27:09;100474.19;;;-0.33;66.90
68456;BME280;55437;55.046;38.838;2024-02-23T01:29:35;100481.69;;;-0.38;66.94
68456;BME280;55437;55.046;38.838;2024-02-23T01:32:01;100482.50;;;-0.39;67.03
68456;BME280;55437;55.046;38.838;2024-02-23T01:34:27;100484.94;;;-0.42;66.91
68456;BME280;55437;55.046;38.838;2024-02-23T01:36:53;100475.00;;;-0.34;66.96
68456;BME280;55437;55.046;38.838;2024-02-23T01:39:18;100476.69;;;-0.35;66.84
68456;BME280;55437;55.046;38.838;2024-02-23T01:41:45;100475.84;;;-0.36;66.72
68456;BME280;55437;55.046;38.838;2024-02-23T01:44:11;100474.00;;;-0.43;66.59
68456;BME280;55437;55.046;38.838;2024-02-23T01:46:37;100478.19;;;-0.43;67.03
68456;BME280;55437;55.046;38.838;2024-02-23T01:49:04;100473.88;;;-0.49;67.26
68456;BME280;55437;55.046;38.838;2024-02-23T01:51:30;100482.25;;;-0.50;67.33
68456;BME280;55437;55.046;38.838;2024-02-23T01:53:57;100484.75;;;-0.51;67.11
68456;BME280;55437;55.046;38.838;2024-02-23T01:56:23;100483.97;;;-0.47;66.92
68456;BME280;55437;55.046;38.838;2024-02-23T01:58:49;100479.75;;;-0.48;66.83
68456;BME280;55437;55.046;38.838;2024-02-23T02:01:15;100473.88;;;-0.49;67.27
68456;BME280;55437;55.046;38.838;2024-02-23T02:03:42;100479.91;;;-0.42;66.84
68456;BME280;55437;55.046;38.838;2024-02-23T02:06:10;100478.94;;;-0.49;67.17
68456;BME280;55437;55.046;38.838;2024-02-23T02:08:37;100478.94;;;-0.49;67.33
68456;BME280;55437;55.046;38.838;2024-02-23T02:11:03;100477.06;;;-0.56;67.09
68456;BME280;55437;55.046;38.838;2024-02-23T02:13:30;100479.63;;;-0.54;67.26
68456;BME280;55437;55.046;38.838;2024-02-23T02:16:00;100476.38;;;-0.50;67.14
68456;BME280;55437;55.046;38.838;2024-02-23T02:18:28;100471.31;;;-0.50;67.09
68456;BME280;55437;55.046;38.838;2024-02-23T02:20:57;100475.75;;;-0.40;66.94
68456;BME280;55437;55.046;38.838;2024-02-23T02:23:24;100475.91;;;-0.32;66.82
68456;BME280;55437;55.046;38.838;2024-02-23T02:25:54;100484.25;;;-0.37;66.95
68456;BME280;55437;55.046;38.838;2024-02-23T02:28:23;100475.66;;;-0.43;66.89
68456;BME280;55437;55.046;38.838;2024-02-23T02:30:50;100480.88;;;-0.36;66.72
68456;BME280;55437;55.046;38.838;2024-02-23T02:33:16;100469.69;;;-0.47;66.86
68456;BME280;55437;55.046;38.838;2024-02-23T02:35:42;100483.31;;;-0.40;66.80
68456;BME280;55437;55.046;38.838;2024-02-23T02:38:08;100482.47;;;-0.41;66.84
68456;BME280;55437;55.046;38.838;2024-02-23T02:40:33;100487.28;;;-0.51;67.26
68456;BME280;55437;55.046;38.838;2024-02-23T02:42:59;100489.91;;;-0.45;67.16
68456;BME280;55437;55.046;38.838;2024-02-23T02:45:25;100489.84;;;-0.48;67.03
68456;BME280;55437;55.046;38.838;2024-02-23T02:47:51;100502.44;;;-0.50;67.02
68456;BME280;55437;55.046;38.838;2024-02-23T02:50:17;100494.88;;;-0.48;67.08
68456;BME280;55437;55.046;38.838;2024-02-23T02:52:43;100506.63;;;-0.50;67.19
68456;BME280;55437;55.046;38.838;2024-02-23T02:55:09;100498.06;;;-0.57;67.41
68456;BME280;55437;55.046;38.838;2024-02-23T02:57:35;100511.69;;;-0.50;67.25
68456;BME280;55437;55.046;38.838;2024-02-23T03:00:04;100505.00;;;-0.47;67.17
68456;BME280;55437;55.046;38.838;2024-02-23T03:02:31;100510.03;;;-0.48;67.21
68456;BME280;55437;55.046;38.838;2024-02-23T03:04:57;100506.75;;;-0.44;66.77
68456;BME280;55437;55.046;38.838;2024-02-23T03:07:23;100503.34;;;-0.46;67.02
68456;BME280;55437;55.046;38.838;2024-02-23T03:09:49;100500.19;;;-0.38;66.66
68456;BME280;55437;55.046;38.838;2024-02-23T03:12:16;100497.53;;;-0.44;66.66
68456;BME280;55437;55.046;38.838;2024-02-23T03:14:44;100505.81;;;-0.49;67.03
68456;BME280;55437;55.046;38.838;2024-02-23T03:17:10;100505.63;;;-0.57;67.30
68456;BME280;55437;55.046;38.838;2024-02-23T03:19:37;100496.59;;;-0.47;67.10
68456;BME280;55437;55.046;38.838;2024-02-23T03:22:03;100488.25;;;-0.45;66.94
68456;BME280;55437;55.046;38.838;2024-02-23T03:24:29;100495.84;;;-0.43;67.25
68456;BME280;55437;55.046;38.838;2024-02-23T03:26:55;100494.88;;;-0.48;67.05
68456;BME280;55437;55.046;38.838;2024-02-23T03:29:22;100511.75;;;-0.46;66.89
68456;BME280;55437;55.046;38.838;2024-02-23T03:31:57;100519.28;;;-0.47;67.32
68456;BME280;55437;55.046;38.838;2024-02-23T03:34:24;100520.06;;;-0.51;67.09
68456;BME280;55437;55.046;38.838;2024-02-23T03:36:50;100529.22;;;-0.55;67.34
68456;BME280;55437;55.046;38.838;2024-02-23T03:39:16;100518.34;;;-0.52;66.93
68456;BME280;55437;55.046;38.838;2024-02-23T03:41:42;100517.63;;;-0.47;67.42
68456;BME280;55437;55.046;38.838;2024-02-23T03:44:08;100518.59;;;-0.42;66.88
68456;BME280;55437;55.046;38.838;2024-02-23T03:46:34;100525.31;;;-0.42;67.22
68456;BME280;55437;55.046;38.838;2024-02-23T03:49:00;100523.59;;;-0.43;67.43
68456;BME280;55437;55.046;38.838;2024-02-23T03:51:26;100537.97;;;-0.41;67.25
68456;BME280;55437;55.046;38.838;2024-02-23T03:53:52;100527.75;;;-0.45;67.32
68456;BME280;55437;55.046;38.838;2024-02-23T03:56:18;100523.47;;;-0.48;67.49
68456;BME280;55437;55.046;38.838;2024-02-23T03:58:44;100520.25;;;-0.42;67.51
68456;BME280;55437;55.046;38.838;2024-02-23T04:01:10;100522.34;;;-0.26;67.07
68456;BME280;55437;55.046;38.838;2024-02-23T04:03:35;100519.03;;;-0.22;66.74
68456;BME280;55437;55.046;38.838;2024-02-23T04:06:02;100527.03;;;-0.41;67.01
68456;BME280;55437;55.046;38.838;2024-02-23T04:08:27;100531.28;;;-0.39;66.97
68456;BME280;55437;55.046;38.838;2024-02-23T04:10:53;100540.56;;;-0.36;67.19
68456;BME280;55437;55.046;38.838;2024-02-23T04:13:19;100533.84;;;-0.36;67.02
68456;BME280;55437;55.046;38.838;2024-02-23T04:15:45;100534.81;;;-0.30;66.86
68456;BME280;55437;55.046;38.838;2024-02-23T04:18:11;100545.94;;;-0.22;66.63
68456;BME280;55437;55.046;38.838;2024-02-23T04:20:37;100549.47;;;-0.16;66.82
68456;BME280;55437;55.046;38.838;2024-02-23T04:23:03;100542.06;;;-0.08;66.62
68456;BME280;55437;55.046;38.838;2024-02-23T04:25:30;100547.25;;;-0.02;66.48
68456;BME280;55437;55.046;38.838;2024-02-23T04:27:55;100552.22;;;-0.05;66.05
68456;BME280;55437;55.046;38.838;2024-02-23T04:30:21;100543.03;;;-0.03;66.13
68456;BME280;55437;55.046;38.838;2024-02-23T04:32:47;100540.34;;;-0.09;66.23
68456;BME280;55437;55.046;38.838;2024-02-23T04:35:13;100547.19;;;-0.05;66.29
68456;BME280;55437;55.046;38.838;2024-02-23T04:37:39;100548.97;;;-0.01;66.03
68456;BME280;55437;55.046;38.838;2024-02-23T04:40:06;100550.41;;;-0.11;66.12
68456;BME280;55437;55.046;38.838;2024-02-23T04:42:32;100552.78;;;-0.18;66.47
68456;BME280;55437;55.046;38.838;2024-02-23T04:44:58;100546.75;;;-0.23;66.42
68456;BME280;55437;55.046;38.838;2024-02-23T04:47:23;100541.09;;;-0.15;66.51
68456;BME280;55437;55.046;38.838;2024-02-23T04:49:49;100542.78;;;-0.14;66.21
68456;BME280;55437;55.046;38.838;2024-02-23T04:52:15;100544.50;;;-0.13;66.04
68456;BME280;55437;55.046;38.838;2024-02-23T04:54:41;100552.88;;;-0.14;66.00
68456;BME280;55437;55.046;38.838;2024-02-23T04:57:07;100557.91;;;-0.15;66.11
68456;BME280;55437;55.046;38.838;2024-02-23T04:59:34;100559.56;;;-0.16;66.08
68456;BME280;55437;55.046;38.838;2024-02-23T05:02:00;100556.28;;;-0.12;65.92
68456;BME280;55437;55.046;38.838;2024-02-23T05:04:26;100560.38;;;-0.17;65.84
68456;BME280;55437;55.046;38.838;2024-02-23T05:06:52;100561.13;;;-0.21;66.12
68456;BME280;55437;55.046;38.838;2024-02-23T05:09:18;100566.78;;;-0.31;66.22
68456;BME280;55437;55.046;38.838;2024-02-23T05:11:46;100562.66;;;-0.27;66.18
68456;BME280;55437;55.046;38.838;2024-02-23T05:14:13;100567.09;;;-0.17;66.08
68456;BME280;55437;55.046;38.838;2024-02-23T05:16:39;100561.09;;;-0.22;66.28
68456;BME280;55437;55.046;38.838;2024-02-23T05:19:05;100574.78;;;-0.13;65.91
68456;BME280;55437;55.046;38.838;2024-02-23T05:21:57;100563.81;;;-0.15;66.02
68456;BME280;55437;55.046;38.838;2024-02-23T05:24:23;100566.16;;;-0.21;66.25
68456;BME280;55437;55.046;38.838;2024-02-23T05:26:48;100560.31;;;-0.20;65.94
68456;BME280;55437;55.046;38.838;2024-02-23T05:29:14;100568.88;;;-0.13;65.97
68456;BME280;55437;55.046;38.838;2024-02-23T05:31:48;100569.75;;;-0.11;65.92
68456;BME280;55437;55.046;38.838;2024-02-23T05:34:14;100573.94;;;-0.13;65.89
68456;BME280;55437;55.046;38.838;2024-02-23T05:36:40;100579.63;;;-0.20;66.22
68456;BME280;55437;55.046;38.838;2024-02-23T05:39:06;100579.69;;;-0.19;66.21
68456;BME280;55437;55.046;38.838;2024-02-23T05:41:37;100567.94;;;-0.17;66.01
68456;BME280;55437;55.046;38.838;2024-02-23T05:44:04;100580.56;;;-0.17;66.15
68456;BME280;55437;55.046;38.838;2024-02-23T05:46:35;100581.72;;;-0.04;65.95
68456;BME280;55437;55.046;38.838;2024-02-23T05:49:02;100572.63;;;0.04;65.83
68456;BME280;55437;55.046;38.838;2024-02-23T05:51:28;100576.06;;;0.08;65.74
68456;BME280;55437;55.046;38.838;2024-02-23T05:53:54;100587.25;;;0.19;65.68
68456;BME280;55437;55.046;38.838;2024-02-23T05:56:21;100591.50;;;0.20;65.42
68456;BME280;55437;55.046;38.838;2024-02-23T05:58:47;100586.47;;;0.21;65.37
68456;BME280;55437;55.046;38.838;2024-02-23T06:01:13;100576.53;;;0.29;65.04
68456;BME280;55437;55.046;38.838;2024-02-23T06:03:39;100567.16;;;0.25;65.20
68456;BME280;55437;55.046;38.838;2024-02-23T06:06:08;100571.44;;;0.27;65.09
68456;BME280;55437;55.046;38.838;2024-02-23T06:08:34;100561.28;;;0.24;64.94
68456;BME280;55437;55.046;38.838;2024-02-23T06:11:00;100582.47;;;0.31;65.02
68456;BME280;55437;55.046;38.838;2024-02-23T06:13:26;100591.72;;;0.30;64.74
68456;BME280;55437;55.046;38.838;2024-02-23T06:15:52;100587.56;;;0.32;64.87
68456;BME280;55437;55.046;38.838;2024-02-23T06:18:18;100594.09;;;0.23;65.18
68456;BME280;55437;55.046;38.838;2024-02-23T06:20:43;100594.94;;;0.23;65.24
68456;BME280;55437;55.046;38.838;2024-02-23T06:23:09;100596.78;;;0.30;65.20
68456;BME280;55437;55.046;38.838;2024-02-23T06:25:35;100611.16;;;0.33;64.88
68456;BME280;55437;55.046;38.838;2024-02-23T06:28:19;100607.66;;;0.28;65.09
68456;BME280;55437;55.046;38.838;2024-02-23T06:30:45;100595.13;;;0.32;64.97
68456;BME280;55437;55.046;38.838;2024-02-23T06:33:11;100591.03;;;0.38;64.70
68456;BME280;55437;55.046;38.838;2024-02-23T06:35:37;100607.53;;;0.22;64.98
68456;BME280;55437;55.046;38.838;2024-02-23T06:38:03;100594.13;;;0.26;65.17
68456;BME280;55437;55.046;38.838;2024-02-23T06:40:31;100607.84;;;0.37;64.94
68456;BME280;55437;55.046;38.838;2024-02-23T06:42:57;100611.38;;;0.44;64.82
68456;BME280;55437;55.046;38.838;2024-02-23T06:45:23;100604.72;;;0.49;64.52
68456;BME280;55437;55.046;38.838;2024-02-23T06:47:52;100619.91;;;0.50;64.65
68456;BME280;55437;55.046;38.838;2024-02-23T06:50:19;100601.94;;;0.36;64.77
68456;BME280;55437;55.046;38.838;2024-02-23T06:52:45;100611.41;;;0.45;64.72
68456;BME280;55437;55.046;38.838;2024-02-23T06:55:31;100611.63;;;0.56;64.31
68456;BME280;55437;55.046;38.838;2024-02-23T06:57:57;100602.41;;;0.58;64.43
68456;BME280;55437;55.046;38.838;2024-02-23T07:00:23;100616.66;;;0.54;64.47
68456;BME280;55437;55.046;38.838;2024-02-23T07:02:49;100617.50;;;0.55;64.68
68456;BME280;55437;55.046;38.838;2024-02-23T07:05:15;100619.31;;;0.62;64.23
68456;BME280;55437;55.046;38.838;2024-02-23T07:07:41;100618.50;;;0.63;64.23
68456;BME280;55437;55.046;38.838;2024-02-23T07:10:08;100626.28;;;0.72;64.09
68456;BME280;55437;55.046;38.838;2024-02-23T07:12:35;100615.44;;;0.78;64.07
68456;BME280;55437;55.046;38.838;2024-02-23T07:15:01;100617.16;;;0.79;64.07
68456;BME280;55437;55.046;38.838;2024-02-23T07:17:31;100624.59;;;0.71;64.46
68456;BME280;55437;55.046;38.838;2024-02-23T07:19:57;100624.59;;;0.71;64.58
68456;BME280;55437;55.046;38.838;2024-02-23T07:22:32;100631.50;;;0.80;64.92
68456;BME280;55437;55.046;38.838;2024-02-23T07:24:58;100630.63;;;0.79;65.11
68456;BME280;55437;55.046;38.838;2024-02-23T07:27:25;100639.03;;;0.78;65.53
68456;BME280;55437;55.046;38.838;2024-02-23T07:29:51;100637.38;;;0.79;65.46
68456;BME280;55437;55.046;38.838;2024-02-23T07:32:18;100634.94;;;0.83;65.23
68456;BME280;55437;55.046;38.838;2024-02-23T07:34:44;100630.72;;;0.82;65.29
68456;BME280;55437;55.046;38.838;2024-02-23T07:37:10;100638.41;;;0.88;65.10
68456;BME280;55437;55.046;38.838;2024-02-23T07:39:35;100630.91;;;0.93;65.16
68456;BME280;55437;55.046;38.838;2024-02-23T07:42:01;100632.63;;;0.94;64.90
68456;BME280;55437;55.046;38.838;2024-02-23T07:44:29;100631.81;;;0.95;64.70
68456;BME280;55437;55.046;38.838;2024-02-23T07:46:55;100642.72;;;0.94;64.75
68456;BME280;55437;55.046;38.838;2024-02-23T07:49:21;100641.72;;;0.84;65.26
68456;BME280;55437;55.046;38.838;2024-02-23T07:51:48;100640.84;;;0.84;65.31
68456;BME280;55437;55.046;38.838;2024-02-23T07:54:14;100651.84;;;0.87;65.39
68456;BME280;55437;55.046;38.838;2024-02-23T07:56:59;100649.91;;;0.74;65.63
68456;BME280;55437;55.046;38.838;2024-02-23T07:59:25;100645.56;;;0.67;65.66
68456;BME280;55437;55.046;38.838;2024-02-23T08:01:51;100646.25;;;0.60;66.34
68456;BME280;55437;55.046;38.838;2024-02-23T08:04:16;100638.56;;;0.55;67.00
68456;BME280;55437;55.046;38.838;2024-02-23T08:06:42;100635.94;;;0.51;67.45
68456;BME280;55437;55.046;38.838;2024-02-23T08:09:08;100638.75;;;0.64;67.28
68456;BME280;55437;55.046;38.838;2024-02-23T08:11:35;100643.09;;;0.70;67.13
68456;BME280;55437;55.046;38.838;2024-02-23T08:14:01;100645.19;;;0.91;66.62
68456;BME280;55437;55.046;38.838;2024-02-23T08:16:28;100648.66;;;0.94;66.53
68456;BME280;55437;55.046;38.838;2024-02-23T08:18:55;100645.50;;;1.06;66.15
68456;BME280;55437;55.046;38.838;2024-02-23T08:21:21;100652.06;;;0.96;66.01
68456;BME280;55437;55.046;38.838;2024-02-23T08:23:47;100653.19;;;1.12;65.69
68456;BME280;55437;55.046;38.838;2024-02-23T08:26:13;100644.16;;;1.25;65.50
68456;BME280;55437;55.046;38.838;2024-02-23T08:28:40;100651.16;;;1.38;65.17
68456;BME280;55437;55.046;38.838;2024-02-23T08:31:06;100662.78;;;1.28;64.97
68456;BME280;55437;55.046;38.838;2024-02-23T08:33:32;100656.78;;;1.23;64.79
68456;BME280;55437;55.046;38.838;2024-02-23T08:35:59;100656.31;;;1.42;64.86
68456;BME280;55437;55.046;38.838;2024-02-23T08:38:25;100659.00;;;1.52;64.43
68456;BME280;55437;55.046;38.838;2024-02-23T08:40:51;100662.34;;;1.51;64.25
68456;BME280;55437;55.046;38.838;2024-02-23T08:43:17;100658.19;;;1.54;64.04
68456;BME280;55437;55.046;38.838;2024-02-23T08:45:43;100657.34;;;1.54;63.97
68456;BME280;55437;55.046;38.838;2024-02-23T08:48:09;100663.94;;;1.44;63.69
68456;BME280;55437;55.046;38.838;2024-02-23T08:50:58;100663.94;;;1.45;63.92
68456;BME280;55437;55.046;38.838;2024-02-23T08:53:24;100675.00;;;1.51;63.61
68456;BME280;55437;55.046;38.838;2024-02-23T08:55:50;100678.19;;;1.40;63.95
68456;BME280;55437;55.046;38.838;2024-02-23T08:58:16;100677.47;;;1.48;63.47
68456;BME280;55437;55.046;38.838;2024-02-23T09:00:43;100674.00;;;1.41;63.46
68456;BME280;55437;55.046;38.838;2024-02-23T09:03:09;100680.63;;;1.36;63.52
68456;BME280;55437;55.046;38.838;2024-02-23T09:05:35;100675.50;;;1.33;63.38
68456;BME280;55437;55.046;38.838;2024-02-23T09:08:01;100675.63;;;1.39;63.68
68456;BME280;55437;55.046;38.838;2024-02-23T09:10:26;100677.44;;;1.44;63.43
68456;BME280;55437;55.046;38.838;2024-02-23T09:12:52;100677.66;;;1.57;63.11
68456;BME280;55437;55.046;38.838;2024-02-23T09:15:18;100678.63;;;1.65;62.73
68456;BME280;55437;55.046;38.838;2024-02-23T09:17:45;100691.47;;;1.75;62.48
68456;BME280;55437;55.046;38.838;2024-02-23T09:20:11;100675.72;;;1.92;62.11
68456;BME280;55437;55.046;38.838;2024-02-23T09:22:38;100679.94;;;1.91;61.82
68456;BME280;55437;55.046;38.838;2024-02-23T09:25:06;100696.72;;;1.86;62.05
68456;BME280;55437;55.046;38.838;2024-02-23T09:27:32;100695.81;;;1.81;62.21
68456;BME280;55437;55.046;38.838;2024-02-23T09:29:58;100690.88;;;1.90;62.10
68456;BME280;55437;55.046;38.838;2024-02-23T09:32:24;100689.03;;;1.81;62.00
68456;BME280;55437;55.046;38.838;2024-02-23T09:34:50;100697.41;;;1.77;62.23
68456;BME280;55437;55.046;38.838;2024-02-23T09:37:16;100689.94;;;1.85;61.67
68456;BME280;55437;55.046;38.838;2024-02-23T09:39:43;100699.03;;;1.74;61.91
68456;BME280;55437;55.046;38.838;2024-02-23T09:42:10;100693.38;;;1.89;62.13
68456;BME280;55437;55.046;38.838;2024-02-23T09:44:41;100699.41;;;1.95;61.75
68456;BME280;55437;55.046;38.838;2024-02-23T09:47:12;100704.44;;;1.92;61.86
68456;BME280;55437;55.046;38.838;2024-02-23T09:49:40;100689.00;;;1.78;62.24
68456;BME280;55437;55.046;38.838;2024-02-23T09:52:09;100690.16;;;1.97;61.99
68456;BME280;55437;55.046;38.838;2024-02-23T09:54:37;100682.56;;;1.97;62.05
68456;BME280;55437;55.046;38.838;2024-02-23T09:57:06;100696.25;;;2.08;61.91
68456;BME280;55437;55.046;38.838;2024-02-23T09:59:34;100699.44;;;1.98;61.89
68456;BME280;55437;55.046;38.838;2024-02-23T10:02:09;100702.16;;;2.09;62.06
68456;BME280;55437;55.046;38.838;2024-02-23T10:04:40;100703.97;;;2.17;61.71
68456;BME280;55437;55.046;38.838;2024-02-23T10:07:07;100702.19;;;2.10;61.62
68456;BME280;55437;55.046;38.838;2024-02-23T10:09:33;100709.97;;;2.23;61.59
68456;BME280;55437;55.046;38.838;2024-02-23T10:11:59;100703.22;;;2.23;61.67
68456;BME280;55437;55.046;38.838;2024-02-23T10:14:43;100711.78;;;2.30;61.57
68456;BME280;55437;55.046;38.838;2024-02-23T10:17:09;100710.09;;;2.30;61.37
68456;BME280;55437;55.046;38.838;2024-02-23T10:19:37;100717.50;;;2.18;62.16
68456;BME280;55437;55.046;38.838;2024-02-23T10:22:22;100722.56;;;2.18;61.90
68456;BME280;55437;55.046;38.838;2024-02-23T10:24:51;100707.31;;;2.13;62.27
68456;BME280;55437;55.046;38.838;2024-02-23T10:27:17;100716.50;;;2.08;62.37
68456;BME280;55437;55.046;38.838;2024-02-23T10:29:43;100718.88;;;1.99;62.23
68456;BME280;55437;55.046;38.838;2024-02-23T10:32:14;100723.94;;;1.98;62.42
68456;BME280;55437;55.046;38.838;2024-02-23T10:34:47;100730.75;;;2.02;62.44
68456;BME280;55437;55.046;38.838;2024-02-23T10:37:15;100718.88;;;1.99;62.66
68456;BME280;55437;55.046;38.838;2024-02-23T10:39:41;100718.81;;;1.95;62.86
68456;BME280;55437;55.046;38.838;2024-02-23T10:42:09;100719.63;;;1.94;63.05
68456;BME280;55437;55.046;38.838;2024-02-23T10:44:37;100720.53;;;1.97;63.45
68456;BME280;55437;55.046;38.838;2024-02-23T10:47:04;100723.16;;;2.02;62.92
68456;BME280;55437;55.046;38.838;2024-02-23T10:49:31;100715.41;;;1.93;63.06
68456;BME280;55437;55.046;38.838;2024-02-23T10:51:57;100721.25;;;1.89;63.00
68456;BME280;55437;55.046;38.838;2024-02-23T10:54:23;100712.88;;;1.94;63.04
68456;BME280;55437;55.046;38.838;2024-02-23T10:56:51;100722.75;;;1.77;63.66
68456;BME280;55437;55.046;38.838;2024-02-23T10:59:18;100723.50;;;1.73;63.70
68456;BME280;55437;55.046;38.838;2024-02-23T11:01:49;100737.63;;;1.62;63.86
68456;BME280;55437;55.046;38.838;2024-02-23T11:04:20;100727.41;;;1.56;64.17
68456;BME280;55437;55.046;38.838;2024-02-23T11:06:56;100741.03;;;1.63;64.36
68456;BME280;55437;55.046;38.838;2024-02-23T11:09:31;100739.22;;;1.57;64.21
68456;BME280;55437;55.046;38.838;2024-02-23T11:11:58;100732.50;;;1.59;64.13
68456;BME280;55437;55.046;38.838;2024-02-23T11:14:34;100741.28;;;1.76;64.32
68456;BME280;55437;55.046;38.838;2024-02-23T11:17:02;100743.16;;;1.87;64.22
68456;BME280;55437;55.046;38.838;2024-02-23T11:19:39;100738.19;;;1.91;63.93
68456;BME280;55437;55.046;38.838;2024-02-23T11:22:09;100737.44;;;1.98;63.77
68456;BME280;55437;55.046;38.838;2024-02-23T11:24:42;100740.31;;;2.20;63.54
68456;BME280;55437;55.046;38.838;2024-02-23T11:27:14;100737.00;;;2.22;63.44
68456;BME280;55437;55.046;38.838;2024-02-23T11:29:42;100741.53;;;2.41;62.93
68456;BME280;55437;55.046;38.838;2024-02-23T11:32:16;100742.53;;;2.51;62.72
68456;BME280;55437;55.046;38.838;2024-02-23T11:34:56;100747.47;;;2.43;63.04
68456;BME280;55437;55.046;38.838;2024-02-23T11:37:22;100748.25;;;2.38;63.15
68456;BME280;55437;55.046;38.838;2024-02-23T11:39:49;100759.41;;;2.49;63.00
68456;BME280;55437;55.046;38.838;2024-02-23T11:42:17;100759.63;;;2.64;62.55
68456;BME280;55437;55.046;38.838;2024-02-23T11:45:02;100765.34;;;2.51;62.65
68456;BME280;55437;55.046;38.838;2024-02-23T11:47:30;100768.59;;;2.44;62.91
68456;BME280;55437;55.046;38.838;2024-02-23T11:49:56;100764.41;;;2.46;63.27
68456;BME280;55437;55.046;38.838;2024-02-23T11:52:23;100773.50;;;2.33;63.15
68456;BME280;55437;55.046;38.838;2024-02-23T11:54:49;100764.09;;;2.26;63.72
68456;BME280;55437;55.046;38.838;2024-02-23T11:57:15;100775.06;;;2.25;63.54
68456;BME280;55437;55.046;38.838;2024-02-23T11:59:41;100768.22;;;2.21;63.52
68456;BME280;55437;55.046;38.838;2024-02-23T12:02:08;100778.41;;;2.24;63.65
68456;BME280;55437;55.046;38.838;2024-02-23T12:04:35;100777.63;;;2.27;63.42
68456;BME280;55437;55.046;38.838;2024-02-23T12:07:02;100768.38;;;2.29;63.44
68456;BME280;55437;55.046;38.838;2024-02-23T12:09:28;100771.59;;;2.20;63.52
68456;BME280;55437;55.046;38.838;2024-02-23T12:11:54;100781.56;;;2.11;64.05
68456;BME280;55437;55.046;38.838;2024-02-23T12:14:23;100765.41;;;2.03;64.19
68456;BME280;55437;55.046;38.838;2024-02-23T12:16:51;100769.53;;;1.99;64.27
68456;BME280;55437;55.046;38.838;2024-02-23T12:19:18;100773.03;;;2.04;64.42
68456;BME280;55437;55.046;38.838;2024-02-23T12:21:47;100777.16;;;2.01;64.59
68456;BME280;55437;55.046;38.838;2024-02-23T12:24:31;100789.72;;;1.95;64.85
68456;BME280;55437;55.046;38.838;2024-02-23T12:26:57;100789.59;;;1.87;65.04
68456;BME280;55437;55.046;38.838;2024-02-23T12:29:24;100788.03;;;1.95;64.89
68456;BME280;55437;55.046;38.838;2024-02-23T12:31:50;100785.66;;;2.03;64.61
68456;BME280;55437;55.046;38.838;2024-02-23T12:34:35;100804.34;;;2.09;64.44
68456;BME280;55437;55.046;38.838;2024-02-23T12:37:05;100786.50;;;2.03;64.78
68456;BME280;55437;55.046;38.838;2024-02-23T12:39:31;100792.56;;;2.11;64.79
68456;BME280;55437;55.046;38.838;2024-02-23T12:41:57;100788.31;;;2.10;64.32
68456;BME280;55437;55.046;38.838;2024-02-23T12:44:23;100787.72;;;2.25;64.57
68456;BME280;55437;55.046;38.838;2024-02-23T12:46:50;100775.78;;;2.16;64.55